sensor_id;sensor_type;location;lat;lon;timestamp;pressure;altitude;pressure_sealevel;temperature;humidity
12213;BME280;6169;44.158;22.788;2023-01-27T00:03:49;100730.41;;;5.68;67.12
12213;BME280;6169;44.158;22.788;2023-01-27T00:08:53;100736.31;;;5.93;65.64
12213;BME280;6169;44.158;22.788;2023-01-27T00:13:55;100731.69;;;5.87;65.80
12213;BME280;6169;44.158;22.788;2023-01-27T00:18:57;100727.72;;;5.68;66.89
12213;BME280;6169;44.158;22.788;2023-01-27T00:24:01;100728.28;;;5.78;65.35
12213;BME280;6169;44.158;22.788;2023-01-27T00:29:25;100716.78;;;5.84;66.37
12213;BME280;6169;44.158;22.788;2023-01-27T00:34:28;100709.72;;;5.83;66.49
12213;BME280;6169;44.158;22.788;2023-01-27T00:39:31;100700.41;;;5.49;66.95
12213;BME280;6169;44.158;22.788;2023-01-27T00:44:33;100704.81;;;5.35;68.13
12213;BME280;6169;44.158;22.788;2023-01-27T00:49:35;100703.09;;;5.49;68.11
12213;BME280;6169;44.158;22.788;2023-01-27T00:54:39;100691.38;;;5.35;68.41
12213;BME280;6169;44.158;22.788;2023-01-27T00:59:41;100684.31;;;5.86;66.49
12213;BME280;6169;44.158;22.788;2023-01-27T01:04:44;100679.03;;;5.41;68.21
12213;BME280;6169;44.158;22.788;2023-01-27T01:09:47;100676.56;;;5.25;68.19
12213;BME280;6169;44.158;22.788;2023-01-27T01:14:49;100659.53;;;5.03;69.43
12213;BME280;6169;44.158;22.788;2023-01-27T01:19:52;100662.16;;;5.32;69.27
12213;BME280;6169;44.158;22.788;2023-01-27T01:24:55;100673.78;;;5.33;68.62
12213;BME280;6169;44.158;22.788;2023-01-27T01:29:57;100674.91;;;5.60;67.28
12213;BME280;6169;44.158;22.788;2023-01-27T01:35:00;100669.41;;;5.47;68.72
12213;BME280;6169;44.158;22.788;2023-01-27T01:40:05;100656.06;;;5.38;68.21
12213;BME280;6169;44.158;22.788;2023-01-27T01:45:46;100656.97;;;5.82;66.53
12213;BME280;6169;44.158;22.788;2023-01-27T01:50:52;100652.72;;;5.36;67.66
12213;BME280;6169;44.158;22.788;2023-01-27T01:55:58;100640.53;;;5.70;67.30
12213;BME280;6169;44.158;22.788;2023-01-27T02:01:03;100640.59;;;5.77;66.74
12213;BME280;6169;44.158;22.788;2023-01-27T02:06:06;100639.50;;;5.71;67.35
12213;BME280;6169;44.158;22.788;2023-01-27T02:11:11;100645.19;;;5.83;66.47
12213;BME280;6169;44.158;22.788;2023-01-27T02:16:13;100638.25;;;5.52;67.93
12213;BME280;6169;44.158;22.788;2023-01-27T02:21:16;100631.69;;;5.76;67.24
12213;BME280;6169;44.158;22.788;2023-01-27T02:26:22;100640.69;;;5.47;67.59
12213;BME280;6169;44.158;22.788;2023-01-27T02:31:26;100589.88;;;5.31;66.87
12213;BME280;6169;44.158;22.788;2023-01-27T02:36:29;100620.22;;;5.68;68.39
12213;BME280;6169;44.158;22.788;2023-01-27T02:41:36;100626.06;;;5.71;67.87
12213;BME280;6169;44.158;22.788;2023-01-27T02:46:40;100618.81;;;5.50;67.87
12213;BME280;6169;44.158;22.788;2023-01-27T02:51:42;100617.66;;;5.59;67.70
12213;BME280;6169;44.158;22.788;2023-01-27T02:56:46;100606.78;;;5.68;67.37
12213;BME280;6169;44.158;22.788;2023-01-27T03:01:48;100600.59;;;5.67;67.33
12213;BME280;6169;44.158;22.788;2023-01-27T03:06:50;100607.78;;;5.81;66.50
12213;BME280;6169;44.158;22.788;2023-01-27T03:11:53;100597.72;;;5.69;67.47
12213;BME280;6169;44.158;22.788;2023-01-27T03:17:13;100586.56;;;5.93;66.93
12213;BME280;6169;44.158;22.788;2023-01-27T03:22:32;100591.31;;;5.91;66.52
12213;BME280;6169;44.158;22.788;2023-01-27T03:27:36;100586.28;;;5.81;67.53
12213;BME280;6169;44.158;22.788;2023-01-27T03:32:38;100568.63;;;5.72;67.89
12213;BME280;6169;44.158;22.788;2023-01-27T03:37:46;100562.53;;;5.64;67.51
12213;BME280;6169;44.158;22.788;2023-01-27T03:43:06;100563.38;;;5.49;68.33
12213;BME280;6169;44.158;22.788;2023-01-27T03:48:26;100566.56;;;5.74;66.95
12213;BME280;6169;44.158;22.788;2023-01-27T03:53:28;100552.91;;;4.97;70.60
12213;BME280;6169;44.158;22.788;2023-01-27T03:58:34;100559.25;;;5.47;68.63
12213;BME280;6169;44.158;22.788;2023-01-27T04:03:36;100551.44;;;5.30;68.74
12213;BME280;6169;44.158;22.788;2023-01-27T04:08:56;100567.41;;;5.17;69.72
12213;BME280;6169;44.158;22.788;2023-01-27T04:14:04;100552.66;;;5.49;69.20
12213;BME280;6169;44.158;22.788;2023-01-27T04:19:08;100572.94;;;5.30;70.17
12213;BME280;6169;44.158;22.788;2023-01-27T04:24:11;100574.91;;;4.70;71.99
12213;BME280;6169;44.158;22.788;2023-01-27T04:29:26;100573.91;;;5.08;70.42
12213;BME280;6169;44.158;22.788;2023-01-27T04:34:29;100567.75;;;5.50;69.31
12213;BME280;6169;44.158;22.788;2023-01-27T04:39:31;100562.81;;;5.54;68.85
12213;BME280;6169;44.158;22.788;2023-01-27T04:44:35;100558.41;;;5.68;68.35
12213;BME280;6169;44.158;22.788;2023-01-27T04:49:37;100572.16;;;5.36;68.48
12213;BME280;6169;44.158;22.788;2023-01-27T04:54:39;100568.31;;;5.24;69.78
12213;BME280;6169;44.158;22.788;2023-01-27T04:59:43;100565.50;;;5.32;69.67
12213;BME280;6169;44.158;22.788;2023-01-27T05:04:45;100560.06;;;5.26;70.28
12213;BME280;6169;44.158;22.788;2023-01-27T05:09:47;100578.28;;;5.30;69.77
12213;BME280;6169;44.158;22.788;2023-01-27T05:14:51;100570.31;;;5.58;68.25
12213;BME280;6169;44.158;22.788;2023-01-27T05:19:53;100573.56;;;5.54;69.12
12213;BME280;6169;44.158;22.788;2023-01-27T05:24:55;100574.28;;;5.41;68.83
12213;BME280;6169;44.158;22.788;2023-01-27T05:29:59;100528.19;;;5.01;69.82
12213;BME280;6169;44.158;22.788;2023-01-27T05:35:01;100601.53;;;5.23;70.72
12213;BME280;6169;44.158;22.788;2023-01-27T05:40:04;100606.47;;;5.56;68.55
12213;BME280;6169;44.158;22.788;2023-01-27T05:45:09;100603.09;;;5.32;69.14
12213;BME280;6169;44.158;22.788;2023-01-27T05:50:11;100613.69;;;5.55;68.74
12213;BME280;6169;44.158;22.788;2023-01-27T05:55:14;100616.81;;;5.59;69.41
12213;BME280;6169;44.158;22.788;2023-01-27T06:00:19;100618.25;;;5.76;68.77
12213;BME280;6169;44.158;22.788;2023-01-27T06:05:21;100620.31;;;5.74;68.70
12213;BME280;6169;44.158;22.788;2023-01-27T06:10:23;100626.13;;;5.99;67.08
12213;BME280;6169;44.158;22.788;2023-01-27T06:15:27;100618.91;;;6.28;67.06
12213;BME280;6169;44.158;22.788;2023-01-27T06:20:29;100633.22;;;6.28;65.61
12213;BME280;6169;44.158;22.788;2023-01-27T06:25:35;100628.81;;;6.21;66.31
12213;BME280;6169;44.158;22.788;2023-01-27T06:30:39;100625.00;;;6.09;66.49
12213;BME280;6169;44.158;22.788;2023-01-27T06:35:42;100624.13;;;6.08;66.55
12213;BME280;6169;44.158;22.788;2023-01-27T06:40:44;100611.00;;;6.20;66.20
12213;BME280;6169;44.158;22.788;2023-01-27T06:45:49;100619.75;;;6.28;65.91
12213;BME280;6169;44.158;22.788;2023-01-27T06:50:52;100557.97;;;6.14;63.76
12213;BME280;6169;44.158;22.788;2023-01-27T06:55:55;100616.53;;;6.12;66.68
12213;BME280;6169;44.158;22.788;2023-01-27T07:00:59;100622.34;;;6.15;66.59
12213;BME280;6169;44.158;22.788;2023-01-27T07:06:02;100624.41;;;5.92;67.88
12213;BME280;6169;44.158;22.788;2023-01-27T07:11:04;100623.56;;;5.91;67.95
12213;BME280;6169;44.158;22.788;2023-01-27T07:16:08;100615.88;;;5.88;67.89
12213;BME280;6169;44.158;22.788;2023-01-27T07:21:10;100609.28;;;6.12;66.71
12213;BME280;6169;44.158;22.788;2023-01-27T07:26:12;100627.91;;;6.14;67.31
12213;BME280;6169;44.158;22.788;2023-01-27T07:31:16;100624.22;;;5.93;67.53
12213;BME280;6169;44.158;22.788;2023-01-27T07:36:18;100617.63;;;5.38;70.68
12213;BME280;6169;44.158;22.788;2023-01-27T07:41:20;100607.03;;;5.15;71.88
12213;BME280;6169;44.158;22.788;2023-01-27T07:46:26;100608.59;;;5.82;69.53
12213;BME280;6169;44.158;22.788;2023-01-27T07:51:28;100626.44;;;5.32;72.22
12213;BME280;6169;44.158;22.788;2023-01-27T07:56:31;100630.25;;;5.23;73.17
12213;BME280;6169;44.158;22.788;2023-01-27T08:01:37;100621.78;;;5.98;70.55
12213;BME280;6169;44.158;22.788;2023-01-27T08:06:40;100634.78;;;5.73;71.34
12213;BME280;6169;44.158;22.788;2023-01-27T08:11:43;100638.34;;;6.02;70.34
12213;BME280;6169;44.158;22.788;2023-01-27T08:16:46;100638.56;;;6.00;70.21
12213;BME280;6169;44.158;22.788;2023-01-27T08:21:48;100648.75;;;6.33;68.45
12213;BME280;6169;44.158;22.788;2023-01-27T08:26:51;100656.47;;;6.15;68.67
12213;BME280;6169;44.158;22.788;2023-01-27T08:31:54;100651.72;;;6.17;68.74
12213;BME280;6169;44.158;22.788;2023-01-27T08:36:56;100653.44;;;6.24;67.90
12213;BME280;6169;44.158;22.788;2023-01-27T08:41:59;100646.41;;;6.52;68.12
12213;BME280;6169;44.158;22.788;2023-01-27T08:47:02;100650.06;;;6.16;68.73
12213;BME280;6169;44.158;22.788;2023-01-27T08:52:05;100641.69;;;6.04;69.15
12213;BME280;6169;44.158;22.788;2023-01-27T08:57:07;100657.91;;;5.89;69.00
12213;BME280;6169;44.158;22.788;2023-01-27T09:02:12;100649.44;;;5.92;69.91
12213;BME280;6169;44.158;22.788;2023-01-27T09:07:14;100655.56;;;6.29;68.02
12213;BME280;6169;44.158;22.788;2023-01-27T09:12:16;100656.38;;;6.30;68.40
12213;BME280;6169;44.158;22.788;2023-01-27T09:17:20;100655.78;;;5.85;69.03
12213;BME280;6169;44.158;22.788;2023-01-27T09:22:22;100666.84;;;6.18;68.62
12213;BME280;6169;44.158;22.788;2023-01-27T09:27:24;100659.34;;;6.13;67.35
12213;BME280;6169;44.158;22.788;2023-01-27T09:32:28;100666.06;;;6.24;67.92
12213;BME280;6169;44.158;22.788;2023-01-27T09:37:31;100644.13;;;5.99;68.33
12213;BME280;6169;44.158;22.788;2023-01-27T09:42:49;100631.75;;;6.54;66.03
12213;BME280;6169;44.158;22.788;2023-01-27T09:48:18;100625.53;;;5.61;68.98
12213;BME280;6169;44.158;22.788;2023-01-27T09:59:11;100616.31;;;6.41;67.03
12213;BME280;6169;44.158;22.788;2023-01-27T10:04:44;100617.41;;;6.19;68.47
12213;BME280;6169;44.158;22.788;2023-01-27T10:09:59;100602.09;;;6.19;67.80
12213;BME280;6169;44.158;22.788;2023-01-27T10:15:13;100604.47;;;6.64;66.77
12213;BME280;6169;44.158;22.788;2023-01-27T10:20:26;100595.97;;;6.60;66.13
12213;BME280;6169;44.158;22.788;2023-01-27T10:25:42;100596.41;;;6.08;68.62
12213;BME280;6169;44.158;22.788;2023-01-27T10:30:57;100593.13;;;5.84;69.72
12213;BME280;6169;44.158;22.788;2023-01-27T10:36:07;100593.06;;;6.27;68.62
12213;BME280;6169;44.158;22.788;2023-01-27T10:41:22;100582.38;;;6.40;68.32
12213;BME280;6169;44.158;22.788;2023-01-27T10:46:34;100575.72;;;6.36;68.64
12213;BME280;6169;44.158;22.788;2023-01-27T10:51:48;100570.84;;;5.69;70.59
12213;BME280;6169;44.158;22.788;2023-01-27T10:56:52;100568.97;;;5.48;71.21
12213;BME280;6169;44.158;22.788;2023-01-27T11:02:01;100564.75;;;6.31;69.69
12213;BME280;6169;44.158;22.788;2023-01-27T11:07:13;100566.59;;;6.02;69.50
12213;BME280;6169;44.158;22.788;2023-01-27T11:12:24;100554.28;;;6.15;69.49
12213;BME280;6169;44.158;22.788;2023-01-27T11:17:31;100551.25;;;5.96;69.81
12213;BME280;6169;44.158;22.788;2023-01-27T11:22:50;100556.03;;;6.29;69.23
12213;BME280;6169;44.158;22.788;2023-01-27T11:28:08;100544.97;;;6.45;69.04
12213;BME280;6169;44.158;22.788;2023-01-27T11:33:17;100537.25;;;6.77;67.61
12213;BME280;6169;44.158;22.788;2023-01-27T11:38:23;100543.69;;;6.76;67.05
12213;BME280;6169;44.158;22.788;2023-01-27T11:43:26;100539.13;;;6.83;67.96
12213;BME280;6169;44.158;22.788;2023-01-27T11:48:36;100543.94;;;6.94;66.92
12213;BME280;6169;44.158;22.788;2023-01-27T11:53:43;100544.63;;;6.62;68.80
12213;BME280;6169;44.158;22.788;2023-01-27T11:58:50;100540.09;;;6.69;67.46
12213;BME280;6169;44.158;22.788;2023-01-27T12:04:00;100534.56;;;6.84;67.54
12213;BME280;6169;44.158;22.788;2023-01-27T12:09:06;100542.31;;;6.59;68.71
12213;BME280;6169;44.158;22.788;2023-01-27T12:14:28;100534.66;;;5.93;71.26
12213;BME280;6169;44.158;22.788;2023-01-27T12:19:34;100534.03;;;6.54;69.33
12213;BME280;6169;44.158;22.788;2023-01-27T12:24:40;100543.88;;;6.75;68.45
12213;BME280;6169;44.158;22.788;2023-01-27T12:29:49;100542.72;;;6.97;68.12
12213;BME280;6169;44.158;22.788;2023-01-27T12:34:54;100546.75;;;7.21;67.41
12213;BME280;6169;44.158;22.788;2023-01-27T12:40:00;100558.09;;;7.10;66.96
12213;BME280;6169;44.158;22.788;2023-01-27T12:45:25;100555.19;;;7.05;66.45
12213;BME280;6169;44.158;22.788;2023-01-27T12:50:31;100560.84;;;6.75;67.25
12213;BME280;6169;44.158;22.788;2023-01-27T12:55:38;100554.00;;;6.72;67.89
12213;BME280;6169;44.158;22.788;2023-01-27T13:00:44;100549.78;;;7.05;66.65
12213;BME280;6169;44.158;22.788;2023-01-27T13:05:51;100554.28;;;6.91;68.10
12213;BME280;6169;44.158;22.788;2023-01-27T13:10:58;100560.34;;;7.00;66.57
12213;BME280;6169;44.158;22.788;2023-01-27T13:16:04;100557.63;;;6.93;67.56
12213;BME280;6169;44.158;22.788;2023-01-27T13:21:12;100563.50;;;7.16;67.14
12213;BME280;6169;44.158;22.788;2023-01-27T13:26:21;100571.22;;;7.33;66.25
12213;BME280;6169;44.158;22.788;2023-01-27T13:31:36;100557.91;;;7.18;66.90
12213;BME280;6169;44.158;22.788;2023-01-27T13:36:47;100562.22;;;7.06;66.68
12213;BME280;6169;44.158;22.788;2023-01-27T13:42:07;100565.19;;;7.24;66.39
12213;BME280;6169;44.158;22.788;2023-01-27T13:47:15;100566.44;;;7.28;66.15
12213;BME280;6169;44.158;22.788;2023-01-27T13:52:19;100573.91;;;7.39;66.55
12213;BME280;6169;44.158;22.788;2023-01-27T13:57:44;100577.06;;;7.50;65.83
12213;BME280;6169;44.158;22.788;2023-01-27T14:03:32;100587.81;;;7.36;66.01
12213;BME280;6169;44.158;22.788;2023-01-27T14:08:46;100586.56;;;7.46;65.18
12213;BME280;6169;44.158;22.788;2023-01-27T14:14:01;100582.59;;;7.22;65.83
12213;BME280;6169;44.158;22.788;2023-01-27T14:19:30;100589.84;;;7.34;66.84
12213;BME280;6169;44.158;22.788;2023-01-27T14:24:41;100586.94;;;7.23;67.20
12213;BME280;6169;44.158;22.788;2023-01-27T14:29:54;100594.50;;;6.99;67.85
12213;BME280;6169;44.158;22.788;2023-01-27T14:35:10;100593.97;;;7.24;66.58
12213;BME280;6169;44.158;22.788;2023-01-27T14:40:20;100594.53;;;7.06;67.22
12213;BME280;6169;44.158;22.788;2023-01-27T14:45:27;100590.03;;;6.71;67.66
12213;BME280;6169;44.158;22.788;2023-01-27T14:50:40;100595.56;;;6.63;68.02
12213;BME280;6169;44.158;22.788;2023-01-27T14:55:45;100604.22;;;6.59;68.29
12213;BME280;6169;44.158;22.788;2023-01-27T15:00:55;100612.50;;;6.57;68.36
12213;BME280;6169;44.158;22.788;2023-01-27T15:06:06;100604.22;;;6.02;70.22
12213;BME280;6169;44.158;22.788;2023-01-27T15:11:28;100608.06;;;6.15;69.76
12213;BME280;6169;44.158;22.788;2023-01-27T15:16:52;100606.28;;;6.00;70.50
12213;BME280;6169;44.158;22.788;2023-01-27T15:27:43;100611.69;;;6.00;70.96
12213;BME280;6169;44.158;22.788;2023-01-27T15:32:47;100609.56;;;5.96;71.31
12213;BME280;6169;44.158;22.788;2023-01-27T15:37:55;100602.56;;;6.01;71.79
12213;BME280;6169;44.158;22.788;2023-01-27T15:43:02;100603.34;;;5.95;70.79
12213;BME280;6169;44.158;22.788;2023-01-27T15:48:11;100591.59;;;5.75;71.66
12213;BME280;6169;44.158;22.788;2023-01-27T15:53:16;100595.94;;;5.76;71.63
12213;BME280;6169;44.158;22.788;2023-01-27T15:58:30;100592.91;;;5.64;72.02
12213;BME280;6169;44.158;22.788;2023-01-27T16:03:38;100611.81;;;5.92;70.13
12213;BME280;6169;44.158;22.788;2023-01-27T16:08:46;100610.06;;;5.85;70.50
12213;BME280;6169;44.158;22.788;2023-01-27T16:13:49;100614.97;;;6.02;69.61
12213;BME280;6169;44.158;22.788;2023-01-27T16:18:59;100627.97;;;5.77;70.25
12213;BME280;6169;44.158;22.788;2023-01-27T16:24:02;100615.44;;;5.85;70.71
12213;BME280;6169;44.158;22.788;2023-01-27T16:29:23;100617.75;;;5.88;71.05
12213;BME280;6169;44.158;22.788;2023-01-27T16:34:30;100625.78;;;5.66;70.67
12213;BME280;6169;44.158;22.788;2023-01-27T16:39:40;100623.13;;;5.88;69.94
12213;BME280;6169;44.158;22.788;2023-01-27T16:44:44;100624.31;;;5.64;70.47
12213;BME280;6169;44.158;22.788;2023-01-27T16:49:50;100620.22;;;5.68;71.12
12213;BME280;6169;44.158;22.788;2023-01-27T16:54:57;100622.81;;;5.76;70.44
12213;BME280;6169;44.158;22.788;2023-01-27T17:00:07;100627.28;;;5.90;70.44
12213;BME280;6169;44.158;22.788;2023-01-27T17:05:15;100624.09;;;5.80;69.28
12213;BME280;6169;44.158;22.788;2023-01-27T17:10:18;100633.22;;;5.86;69.59
12213;BME280;6169;44.158;22.788;2023-01-27T17:15:28;100636.97;;;5.85;69.88
12213;BME280;6169;44.158;22.788;2023-01-27T17:20:36;100645.06;;;5.91;70.25
12213;BME280;6169;44.158;22.788;2023-01-27T17:25:40;100597.97;;;5.52;69.94
12213;BME280;6169;44.158;22.788;2023-01-27T17:30:43;100632.41;;;5.49;70.70
12213;BME280;6169;44.158;22.788;2023-01-27T17:35:51;100631.50;;;5.99;69.30
12213;BME280;6169;44.158;22.788;2023-01-27T17:40:54;100639.13;;;5.74;69.67
12213;BME280;6169;44.158;22.788;2023-01-27T17:46:12;100639.63;;;5.48;70.96
12213;BME280;6169;44.158;22.788;2023-01-27T17:51:20;100641.44;;;5.63;70.76
12213;BME280;6169;44.158;22.788;2023-01-27T17:56:28;100645.47;;;5.52;71.13
12213;BME280;6169;44.158;22.788;2023-01-27T18:01:30;100645.94;;;5.55;71.22
12213;BME280;6169;44.158;22.788;2023-01-27T18:06:34;100649.63;;;5.54;70.97
12213;BME280;6169;44.158;22.788;2023-01-27T18:11:37;100645.59;;;5.80;69.87
12213;BME280;6169;44.158;22.788;2023-01-27T18:16:39;100651.00;;;5.65;70.36
12213;BME280;6169;44.158;22.788;2023-01-27T18:21:43;100651.59;;;5.82;70.17
12213;BME280;6169;44.158;22.788;2023-01-27T18:26:45;100629.94;;;5.83;69.62
12213;BME280;6169;44.158;22.788;2023-01-27T18:31:49;100659.03;;;5.80;70.29
12213;BME280;6169;44.158;22.788;2023-01-27T18:36:57;100654.50;;;5.80;70.17
12213;BME280;6169;44.158;22.788;2023-01-27T18:42:01;100661.47;;;5.75;70.44
12213;BME280;6169;44.158;22.788;2023-01-27T18:47:23;100620.19;;;5.46;70.39
12213;BME280;6169;44.158;22.788;2023-01-27T18:52:27;100662.41;;;6.10;69.66
12213;BME280;6169;44.158;22.788;2023-01-27T18:57:30;100666.53;;;5.85;70.07
12213;BME280;6169;44.158;22.788;2023-01-27T19:02:32;100671.97;;;5.40;72.05
12213;BME280;6169;44.158;22.788;2023-01-27T19:07:36;100665.19;;;5.59;70.79
12213;BME280;6169;44.158;22.788;2023-01-27T19:12:38;100671.66;;;5.65;69.90
12213;BME280;6169;44.158;22.788;2023-01-27T19:17:40;100669.09;;;5.56;71.04
12213;BME280;6169;44.158;22.788;2023-01-27T19:22:46;100662.63;;;5.51;70.80
12213;BME280;6169;44.158;22.788;2023-01-27T19:27:52;100669.56;;;5.45;71.12
12213;BME280;6169;44.158;22.788;2023-01-27T19:32:55;100658.03;;;5.30;71.24
12213;BME280;6169;44.158;22.788;2023-01-27T19:38:01;100659.03;;;5.29;72.19
12213;BME280;6169;44.158;22.788;2023-01-27T19:43:05;100655.59;;;5.35;72.05
12213;BME280;6169;44.158;22.788;2023-01-27T19:48:12;100663.31;;;5.59;70.79
12213;BME280;6169;44.158;22.788;2023-01-27T19:53:17;100566.53;;;4.80;71.47
12213;BME280;6169;44.158;22.788;2023-01-27T19:58:21;100661.78;;;5.50;70.60
12213;BME280;6169;44.158;22.788;2023-01-27T20:03:24;100667.94;;;5.66;70.38
12213;BME280;6169;44.158;22.788;2023-01-27T20:08:28;100672.03;;;5.98;69.18
12213;BME280;6169;44.158;22.788;2023-01-27T20:13:30;100673.75;;;5.84;69.45
12213;BME280;6169;44.158;22.788;2023-01-27T20:18:32;100668.16;;;5.49;71.50
12213;BME280;6169;44.158;22.788;2023-01-27T20:23:36;100671.13;;;5.54;70.98
12213;BME280;6169;44.158;22.788;2023-01-27T20:28:38;100668.63;;;5.53;71.00
12213;BME280;6169;44.158;22.788;2023-01-27T20:33:40;100666.34;;;5.86;69.48
12213;BME280;6169;44.158;22.788;2023-01-27T20:38:44;100670.44;;;6.03;69.47
12213;BME280;6169;44.158;22.788;2023-01-27T20:43:47;100678.91;;;6.00;69.48
12213;BME280;6169;44.158;22.788;2023-01-27T20:48:49;100672.34;;;5.88;70.15
12213;BME280;6169;44.158;22.788;2023-01-27T20:53:53;100681.31;;;5.95;70.00
12213;BME280;6169;44.158;22.788;2023-01-27T20:58:57;100676.19;;;5.79;70.86
12213;BME280;6169;44.158;22.788;2023-01-27T21:04:01;100686.97;;;6.00;70.26
12213;BME280;6169;44.158;22.788;2023-01-27T21:09:04;100683.47;;;5.85;70.37
12213;BME280;6169;44.158;22.788;2023-01-27T21:14:07;100681.97;;;5.97;69.78
12213;BME280;6169;44.158;22.788;2023-01-27T21:19:09;100684.13;;;5.87;70.04
12213;BME280;6169;44.158;22.788;2023-01-27T21:24:14;100683.63;;;5.98;69.54
12213;BME280;6169;44.158;22.788;2023-01-27T21:29:16;100685.91;;;6.01;69.44
12213;BME280;6169;44.158;22.788;2023-01-27T21:34:19;100688.78;;;6.21;69.19
12213;BME280;6169;44.158;22.788;2023-01-27T21:39:23;100694.81;;;6.02;69.70
12213;BME280;6169;44.158;22.788;2023-01-27T21:44:26;100700.97;;;5.96;69.33
12213;BME280;6169;44.158;22.788;2023-01-27T21:49:46;100713.00;;;6.00;69.18
12213;BME280;6169;44.158;22.788;2023-01-27T21:55:07;100725.97;;;5.75;69.68
12213;BME280;6169;44.158;22.788;2023-01-27T22:00:11;100715.34;;;5.88;69.73
12213;BME280;6169;44.158;22.788;2023-01-27T22:05:14;100718.88;;;5.89;70.29
12213;BME280;6169;44.158;22.788;2023-01-27T22:10:19;100723.16;;;5.83;69.55
12213;BME280;6169;44.158;22.788;2023-01-27T22:15:24;100715.41;;;5.58;70.60
12213;BME280;6169;44.158;22.788;2023-01-27T22:20:28;100713.81;;;5.79;70.52
12213;BME280;6169;44.158;22.788;2023-01-27T22:25:31;100718.69;;;5.90;69.41
12213;BME280;6169;44.158;22.788;2023-01-27T22:30:33;100717.59;;;5.85;69.26
12213;BME280;6169;44.158;22.788;2023-01-27T22:35:36;100721.38;;;5.90;68.86
12213;BME280;6169;44.158;22.788;2023-01-27T22:40:40;100715.69;;;5.78;69.14
12213;BME280;6169;44.158;22.788;2023-01-27T22:45:42;100720.41;;;5.76;69.37
12213;BME280;6169;44.158;22.788;2023-01-27T22:50:44;100719.84;;;6.02;68.17
12213;BME280;6169;44.158;22.788;2023-01-27T22:55:55;100725.16;;;5.96;68.50
12213;BME280;6169;44.158;22.788;2023-01-27T23:00:57;100717.06;;;5.74;68.74
12213;BME280;6169;44.158;22.788;2023-01-27T23:06:03;100719.91;;;5.88;67.64
12213;BME280;6169;44.158;22.788;2023-01-27T23:11:07;100713.19;;;5.98;68.09
12213;BME280;6169;44.158;22.788;2023-01-27T23:16:09;100711.94;;;5.79;68.18
12213;BME280;6169;44.158;22.788;2023-01-27T23:21:11;100713.31;;;5.90;67.77
12213;BME280;6169;44.158;22.788;2023-01-27T23:26:15;100721.91;;;6.22;67.01
12213;BME280;6169;44.158;22.788;2023-01-27T23:31:17;100705.13;;;5.98;68.04
12213;BME280;6169;44.158;22.788;2023-01-27T23:36:20;100696.28;;;5.83;68.11
12213;BME280;6169;44.158;22.788;2023-01-27T23:41:24;100696.28;;;5.83;68.63
12213;BME280;6169;44.158;22.788;2023-01-27T23:46:26;100695.06;;;5.86;69.22
12213;BME280;6169;44.158;22.788;2023-01-27T23:51:29;100704.66;;;5.73;68.85
12213;BME280;6169;44.158;22.788;2023-01-27T23:56:32;100714.84;;;5.78;69.22
